Time;durP1;ratioP1;P1;durP2;ratioP2;P2;SDS_P1;SDS_P2;PMS_P1;PMS_P2;Temp;Humidity;BMP_temperature;BMP_pressure;BME280_temperature;BME280_humidity;BME280_pressure;Samples;Min_cycle;Max_cycle;Signal;HPM_P1;HPM_P2
2021/01/03 00:01:19;;;;;;;6.97;6.23;;;;;;;1.25;87.10;97988.88;4823345;28;106385;-75
2021/01/03 00:03:46;;;;;;;7.80;6.43;;;;;;;1.27;86.86;97981.84;4812797;28;104531;-76
2021/01/03 00:06:14;;;;;;;7.13;6.20;;;;;;;1.30;86.38;97986.91;4802807;29;105675;-74
2021/01/03 00:08:42;;;;;;;7.87;6.73;;;;;;;1.17;86.83;97984.88;4805849;29;107739;-74
2021/01/03 00:11:10;;;;;;;7.30;6.27;;;;;;;1.17;87.22;97976.22;4821872;29;103551;-74
2021/01/03 00:13:38;;;;;;;8.10;6.60;;;;;;;1.14;86.87;97981.56;4818243;29;103450;-75
2021/01/03 00:16:05;;;;;;;7.70;6.73;;;;;;;1.22;87.00;97983.81;4816301;28;103949;-76
2021/01/03 00:18:32;;;;;;;7.00;6.30;;;;;;;1.29;86.63;97970.47;4821888;28;105455;-76
2021/01/03 00:20:59;;;;;;;7.37;6.63;;;;;;;1.29;86.36;97975.69;4808126;28;103926;-75
2021/01/03 00:23:28;;;;;;;7.53;6.40;;;;;;;1.21;86.03;97977.75;4817532;28;103690;-76
2021/01/03 00:25:55;;;;;;;7.70;6.80;;;;;;;1.18;86.86;97977.91;4828633;28;103912;-75
2021/01/03 00:28:23;;;;;;;6.57;5.87;;;;;;;1.25;86.81;97975.88;4804158;29;110802;-75
2021/01/03 00:30:51;;;;;;;7.73;6.17;;;;;;;1.28;86.72;97973.97;4822412;29;104358;-75
2021/01/03 00:33:18;;;;;;;7.77;6.20;;;;;;;1.33;86.80;97972.00;4819761;29;104186;-74
2021/01/03 00:35:45;;;;;;;7.70;6.87;;;;;;;1.39;86.84;97971.72;4820955;29;104514;-76
2021/01/03 00:38:14;;;;;;;8.50;7.60;;;;;;;1.26;86.32;97964.56;4795318;29;106712;-76
2021/01/03 00:40:41;;;;;;;7.87;6.43;;;;;;;1.17;86.90;97981.44;4819890;28;103509;-76
2021/01/03 00:43:11;;;;;;;9.30;7.27;;;;;;;1.18;86.19;97972.69;4823210;29;105053;-74
2021/01/03 00:45:39;;;;;;;7.77;6.97;;;;;;;1.16;85.96;97975.38;4819739;29;103507;-75
2021/01/03 00:48:09;;;;;;;8.73;6.93;;;;;;;1.16;86.20;97975.38;4821078;28;104453;-75
2021/01/03 00:50:36;;;;;;;7.50;6.73;;;;;;;1.22;86.49;97978.59;4817757;29;103561;-77
2021/01/03 00:53:04;;;;;;;7.50;6.73;;;;;;;1.30;86.38;97972.13;4803620;29;103782;-75
2021/01/03 00:55:31;;;;;;;9.67;7.70;;;;;;;1.24;86.26;97977.63;4793231;29;107114;-77
2021/01/03 00:57:59;;;;;;;7.90;6.63;;;;;;;1.23;86.37;97985.50;4821257;28;104696;-77
2021/01/03 01:00:29;;;;;;;8.07;7.27;;;;;;;1.17;86.49;97981.44;4824860;29;105558;-76
2021/01/03 01:02:58;;;;;;;7.13;6.33;;;;;;;1.19;86.40;97984.81;4821247;28;103411;-75
2021/01/03 01:05:27;;;;;;;9.70;7.00;;;;;;;1.24;85.83;97976.78;4821481;28;104375;-75
2021/01/03 01:07:54;;;;;;;8.17;6.90;;;;;;;1.23;86.26;97978.56;4820295;29;104285;-74
2021/01/03 01:10:24;;;;;;;8.37;6.87;;;;;;;1.28;86.29;97978.34;4820453;29;103231;-76
2021/01/03 01:12:53;;;;;;;8.77;7.57;;;;;;;1.28;85.89;97973.97;4821845;28;103350;-76
2021/01/03 01:15:26;;;;;;;7.60;6.80;;;;;;;1.32;86.61;97969.47;4823420;29;104297;-77
2021/01/03 01:17:56;;;;;;;8.77;7.03;;;;;;;1.17;86.40;97984.88;4818047;29;111812;-75
2021/01/03 01:20:27;;;;;;;10.60;7.47;;;;;;;1.15;86.51;97983.28;4817618;29;103756;-74
2021/01/03 01:22:56;;;;;;;7.80;6.90;;;;;;;1.17;86.67;97978.84;4822012;28;103140;-75
2021/01/03 01:25:25;;;;;;;8.87;7.77;;;;;;;1.12;86.49;97983.41;4817421;29;103849;-76
2021/01/03 01:27:53;;;;;;;8.40;7.50;;;;;;;1.14;86.95;97977.22;4804247;29;104268;-75
2021/01/03 01:30:22;;;;;;;8.60;7.67;;;;;;;1.14;87.14;97985.03;4804472;29;104631;-74
2021/01/03 01:32:50;;;;;;;9.03;8.10;;;;;;;1.08;87.10;97985.31;4818695;29;103721;-74
2021/01/03 01:35:24;;;;;;;9.23;7.60;;;;;;;1.15;87.37;97985.88;4819005;29;103593;-74
2021/01/03 01:37:52;;;;;;;9.10;7.63;;;;;;;1.17;87.50;97978.84;4822537;29;104892;-74
2021/01/03 01:40:26;;;;;;;7.97;7.17;;;;;;;1.26;87.28;97981.03;4818451;28;104175;-74
2021/01/03 01:42:54;;;;;;;8.03;6.83;;;;;;;1.25;86.84;97984.53;4821116;29;104514;-77
2021/01/03 01:45:24;;;;;;;8.23;7.27;;;;;;;1.21;87.63;97989.94;4810469;29;104519;-74
2021/01/03 01:47:56;;;;;;;8.50;7.40;;;;;;;1.15;87.10;97989.28;4821672;29;106414;-74
2021/01/03 01:50:32;;;;;;;9.17;8.17;;;;;;;1.06;87.72;97988.88;4818467;29;104612;-74
2021/01/03 01:53:00;;;;;;;9.33;7.67;;;;;;;1.16;87.60;97984.94;4825382;29;103531;-76
2021/01/03 01:55:35;;;;;;;10.77;8.47;;;;;;;1.18;87.71;97985.69;4823783;29;104549;-75
2021/01/03 01:58:09;;;;;;;10.17;7.60;;;;;;;1.19;88.55;97984.81;4824120;29;112238;-76
2021/01/03 02:00:40;;;;;;;9.30;8.03;;;;;;;1.25;88.10;97988.88;4821548;29;103293;-75
2021/01/03 02:03:14;;;;;;;9.33;8.27;;;;;;;1.12;89.07;97986.84;4806101;29;104626;-75
2021/01/03 02:05:49;;;;;;;9.60;8.10;;;;;;;1.09;89.43;97988.75;4824114;29;104472;-77
2021/01/03 02:08:25;;;;;;;10.40;8.47;;;;;;;1.13;90.09;97985.94;4821645;28;103768;-76
2021/01/03 02:10:53;;;;;;;10.33;8.73;;;;;;;1.19;90.46;97984.81;4819635;29;103442;-77
2021/01/03 02:13:24;;;;;;;10.57;8.90;;;;;;;1.11;90.66;97986.91;4804564;29;103601;-77
2021/01/03 02:15:55;;;;;;;9.37;8.37;;;;;;;1.02;90.85;97989.94;4819139;29;103940;-76
2021/01/03 02:18:22;;;;;;;10.23;9.10;;;;;;;1.09;91.91;97989.59;4811927;29;104765;-76
2021/01/03 02:21:05;;;;;;;10.60;8.70;;;;;;;1.11;92.51;97989.53;4806594;29;103308;-74
2021/01/03 02:23:39;;;;;;;9.83;8.37;;;;;;;1.17;92.41;97986.63;4820758;28;103880;-76
2021/01/03 02:26:09;;;;;;;10.03;8.63;;;;;;;0.90;93.25;97987.91;4817535;29;103605;-76
2021/01/03 02:28:40;;;;;;;11.07;9.80;;;;;;;0.87;93.84;97985.44;4820292;29;104396;-75
2021/01/03 02:31:09;;;;;;;12.90;10.23;;;;;;;0.84;94.72;97988.16;4818991;29;103399;-76
2021/01/03 02:33:41;;;;;;;10.77;9.23;;;;;;;0.73;95.52;97990.41;4822545;29;104879;-77
2021/01/03 02:36:13;;;;;;;11.03;9.87;;;;;;;0.69;96.31;97999.22;4811269;28;104885;-75
2021/01/03 02:38:46;;;;;;;9.90;8.40;;;;;;;0.85;96.61;97982.03;4824300;29;103844;-75
2021/01/03 02:41:17;;;;;;;11.53;9.87;;;;;;;0.93;96.40;97988.59;4826292;28;103855;-77
2021/01/03 02:43:44;;;;;;;12.07;10.23;;;;;;;0.82;96.70;97992.56;4824478;29;103205;-75
2021/01/03 02:46:11;;;;;;;11.30;10.10;;;;;;;0.92;97.45;97986.06;4830673;28;103827;-76
2021/01/03 02:48:39;;;;;;;11.53;10.20;;;;;;;0.70;98.12;97990.53;4822413;29;106157;-75
2021/01/03 02:51:06;;;;;;;10.40;9.30;;;;;;;0.93;97.98;97987.72;4820143;28;105980;-75
2021/01/03 02:53:33;;;;;;;12.73;9.90;;;;;;;1.09;97.92;97993.97;4808340;29;105131;-76
2021/01/03 02:56:00;;;;;;;11.83;10.63;;;;;;;1.07;97.11;97998.38;4808450;29;105005;-75
2021/01/03 02:58:27;;;;;;;10.63;9.00;;;;;;;1.20;97.07;97991.72;4823081;28;104334;-77
2021/01/03 03:00:55;;;;;;;12.27;10.97;;;;;;;1.10;96.89;97985.22;4819103;29;104071;-74
2021/01/03 03:03:22;;;;;;;11.37;10.17;;;;;;;0.97;98.34;97989.31;4820323;29;103436;-75
2021/01/03 03:05:49;;;;;;;12.07;10.00;;;;;;;1.03;98.29;97989.03;4820447;28;104017;-74
2021/01/03 03:08:16;;;;;;;13.07;11.67;;;;;;;0.91;98.65;97984.38;4807430;29;104808;-76
2021/01/03 03:10:47;;;;;;;12.43;10.97;;;;;;;0.96;98.33;97987.59;4808215;28;103594;-76
2021/01/03 03:13:14;;;;;;;15.17;12.67;;;;;;;0.74;99.13;97989.47;4819032;28;104686;-78
2021/01/03 03:15:42;;;;;;;13.60;10.50;;;;;;;0.87;99.50;97986.25;4823079;29;104441;-77
2021/01/03 03:18:09;;;;;;;18.57;13.60;;;;;;;0.79;99.92;97982.31;4823134;28;104220;-75
2021/01/03 03:20:36;;;;;;;21.90;14.80;;;;;;;0.63;100.00;97982.16;4804896;29;104631;-75
2021/01/03 03:23:04;;;;;;;16.83;14.53;;;;;;;0.75;100.00;97978.16;4806845;29;104995;-75
2021/01/03 03:25:31;;;;;;;17.10;12.17;;;;;;;0.88;100.00;97976.69;4818167;29;103965;-76
2021/01/03 03:27:58;;;;;;;15.97;13.20;;;;;;;0.65;100.00;97989.91;4818215;29;104834;-75
2021/01/03 03:30:25;;;;;;;19.77;16.23;;;;;;;0.77;100.00;97977.19;4824116;29;103251;-75
2021/01/03 03:32:53;;;;;;;17.40;15.03;;;;;;;0.66;100.00;97978.56;4826911;28;103774;-76
2021/01/03 03:35:23;;;;;;;18.03;14.57;;;;;;;0.56;100.00;97976.38;4821067;29;109069;-75
2021/01/03 03:37:51;;;;;;;25.10;20.07;;;;;;;0.67;100.00;97975.06;4822861;29;104339;-76
2021/01/03 03:40:19;;;;;;;19.97;14.87;;;;;;;0.72;100.00;97970.50;4821752;28;103733;-77
2021/01/03 03:42:46;;;;;;;22.30;17.03;;;;;;;0.53;100.00;97971.31;4813174;28;104696;-76
2021/01/03 03:45:15;;;;;;;20.73;16.60;;;;;;;0.44;100.00;97971.72;4819583;29;104442;-76
2021/01/03 03:47:42;;;;;;;17.07;14.37;;;;;;;0.70;100.00;97967.13;4802593;29;105207;-76
2021/01/03 03:50:16;;;;;;;16.30;13.63;;;;;;;0.63;100.00;97948.34;4823036;29;104059;-75
2021/01/03 03:52:44;;;;;;;14.93;12.63;;;;;;;0.67;100.00;97956.88;4807052;29;103641;-75
2021/01/03 03:55:11;;;;;;;16.87;14.20;;;;;;;0.79;100.00;97953.69;4804243;29;104428;-77
2021/01/03 03:57:39;;;;;;;13.83;12.33;;;;;;;0.71;100.00;97951.47;4822913;28;103708;-77
2021/01/03 04:00:08;;;;;;;12.13;9.63;;;;;;;0.86;100.00;97955.13;4810470;29;104976;-76
2021/01/03 04:02:40;;;;;;;17.17;13.37;;;;;;;0.77;100.00;97958.13;4820539;28;104439;-76
2021/01/03 04:05:10;;;;;;;14.57;12.80;;;;;;;0.66;100.00;97952.56;4820261;28;105593;-75
2021/01/03 04:07:38;;;;;;;14.67;12.57;;;;;;;0.79;100.00;97953.69;4822345;29;105717;-75
2021/01/03 04:10:06;;;;;;;16.93;14.60;;;;;;;0.53;100.00;97953.09;4819276;29;103573;-76
2021/01/03 04:12:34;;;;;;;16.40;13.53;;;;;;;0.69;100.00;97948.09;4821117;28;104540;-75
2021/01/03 04:15:03;;;;;;;19.27;16.43;;;;;;;0.62;100.00;97956.25;4821781;29;103653;-75
2021/01/03 04:17:31;;;;;;;15.67;13.70;;;;;;;0.53;100.00;97950.50;4815431;28;105000;-75
2021/01/03 04:19:58;;;;;;;15.93;13.07;;;;;;;0.62;100.00;97957.06;4827018;29;105037;-76
2021/01/03 04:22:28;;;;;;;16.40;14.67;;;;;;;0.46;100.00;97951.69;4821287;29;105060;-74
2021/01/03 04:24:56;;;;;;;14.03;11.20;;;;;;;0.55;100.00;97951.31;4803984;29;104214;-75
2021/01/03 04:27:23;;;;;;;16.77;13.80;;;;;;;0.42;100.00;97952.72;4822956;29;103365;-77
2021/01/03 04:29:50;;;;;;;18.33;14.63;;;;;;;0.50;100.00;97957.63;4824525;29;103641;-75
2021/01/03 04:32:18;;;;;;;16.77;13.97;;;;;;;0.49;100.00;97961.13;4818020;28;103878;-76
2021/01/03 04:34:46;;;;;;;16.10;14.00;;;;;;;0.61;100.00;97958.00;4806526;29;105129;-75
2021/01/03 04:37:19;;;;;;;16.50;14.03;;;;;;;0.45;100.00;97965.59;4818006;29;105795;-76
2021/01/03 04:39:46;;;;;;;18.27;14.43;;;;;;;0.31;100.00;97960.16;4822919;29;104369;-77
2021/01/03 04:42:17;;;;;;;16.57;14.30;;;;;;;0.47;100.00;97963.78;4822729;29;103889;-75
2021/01/03 04:44:47;;;;;;;15.53;13.80;;;;;;;0.50;100.00;97966.25;4805053;29;105115;-75
2021/01/03 04:47:24;;;;;;;17.10;13.90;;;;;;;0.66;100.00;97968.16;4818361;28;106180;-75
2021/01/03 04:49:59;;;;;;;18.33;14.53;;;;;;;0.66;100.00;97968.16;4812523;29;103732;-76
2021/01/03 04:52:44;;;;;;;14.43;12.47;;;;;;;0.69;100.00;97962.84;4822213;29;105398;-77
2021/01/03 04:55:18;;;;;;;17.97;14.30;;;;;;;0.73;100.00;97972.19;4818898;28;104192;-77
2021/01/03 04:57:57;;;;;;;17.63;14.27;;;;;;;0.48;100.00;97964.59;4820401;29;105702;-75
2021/01/03 05:00:28;;;;;;;19.07;15.00;;;;;;;0.52;100.00;97971.38;4824387;29;104418;-76
2021/01/03 05:03:30;;;;;;;17.33;14.83;;;;;;;0.63;100.00;97969.16;4823499;28;103597;-77
2021/01/03 05:06:02;;;;;;;18.17;13.73;;;;;;;0.64;100.00;97970.00;4796214;29;104441;-74
2021/01/03 05:08:40;;;;;;;16.93;12.63;;;;;;;0.59;100.00;97978.84;4817139;29;103809;-75
2021/01/03 05:11:11;;;;;;;13.40;10.60;;;;;;;0.64;100.00;97976.06;4819418;28;103637;-74
2021/01/03 05:13:54;;;;;;;12.40;9.67;;;;;;;0.79;100.00;97979.72;4822932;28;105347;-75
2021/01/03 05:16:22;;;;;;;16.90;12.47;;;;;;;0.69;100.00;97984.50;4819473;28;104323;-75
2021/01/03 05:18:49;;;;;;;15.47;13.63;;;;;;;0.52;100.00;97986.97;4805140;29;105450;-75
2021/01/03 05:21:16;;;;;;;15.07;12.97;;;;;;;0.55;100.00;97984.25;4818695;29;103422;-76
2021/01/03 05:23:58;;;;;;;15.43;12.87;;;;;;;0.71;100.00;97976.59;4793158;29;104617;-74
2021/01/03 05:26:32;;;;;;;13.90;12.10;;;;;;;0.64;100.00;97985.59;4816857;29;105772;-74
2021/01/03 05:29:01;;;;;;;13.13;11.33;;;;;;;0.76;100.00;97990.28;4819961;29;103808;-75
2021/01/03 05:31:30;;;;;;;10.60;8.53;;;;;;;0.85;100.00;97982.03;4818508;29;104216;-75
2021/01/03 05:34:00;;;;;;;13.00;11.13;;;;;;;0.87;100.00;97983.66;4821333;29;103646;-75
2021/01/03 05:36:35;;;;;;;12.97;11.00;;;;;;;0.91;100.00;97979.16;4818892;28;104842;-74
2021/01/03 05:39:10;;;;;;;14.23;12.00;;;;;;;0.85;100.00;97979.44;4806595;29;103818;-74
2021/01/03 05:42:00;;;;;;;13.27;11.50;;;;;;;0.73;100.00;97983.41;4809577;29;104953;-75
2021/01/03 05:44:33;;;;;;;16.63;13.10;;;;;;;0.62;100.00;97987.44;4818926;29;104767;-75
2021/01/03 05:47:04;;;;;;;14.87;11.53;;;;;;;0.67;100.00;97985.47;4803094;29;104644;-74
2021/01/03 05:49:31;;;;;;;13.57;11.43;;;;;;;0.75;100.00;97991.16;4808201;29;103916;-74
2021/01/03 05:52:10;;;;;;;12.13;10.23;;;;;;;0.73;100.00;97980.00;4826083;29;105028;-75
2021/01/03 05:54:39;;;;;;;14.53;13.00;;;;;;;0.62;100.00;97979.63;4822271;29;103202;-75
2021/01/03 05:57:10;;;;;;;14.77;13.17;;;;;;;0.70;100.00;97978.38;4810131;29;103873;-75
2021/01/03 05:59:40;;;;;;;13.97;12.47;;;;;;;0.54;100.00;97980.78;4816047;29;103788;-75
2021/01/03 06:02:11;;;;;;;12.50;11.07;;;;;;;0.72;100.00;97986.09;4821548;28;103195;-75
2021/01/03 06:04:38;;;;;;;14.73;12.80;;;;;;;0.73;100.00;97980.00;4822248;29;103902;-76
2021/01/03 06:07:23;;;;;;;14.73;11.80;;;;;;;0.72;100.00;97989.56;4803438;29;105116;-79
2021/01/03 06:09:50;;;;;;;12.50;10.13;;;;;;;0.76;100.00;97985.06;4823080;28;105299;-77
2021/01/03 06:12:20;;;;;;;13.07;10.20;;;;;;;0.85;100.00;97995.03;4823625;29;103018;-77
2021/01/03 06:14:51;;;;;;;14.03;11.77;;;;;;;0.71;100.00;97990.44;4789824;29;104481;-78
2021/01/03 06:17:33;;;;;;;13.53;11.20;;;;;;;0.80;100.00;97991.81;4795970;29;104484;-80
2021/01/03 06:20:05;;;;;;;14.47;11.53;;;;;;;0.85;100.00;97995.03;4819049;29;104508;-77
2021/01/03 06:22:44;;;;;;;16.33;13.23;;;;;;;0.79;100.00;97985.75;4815078;29;103219;-77
2021/01/03 06:25:23;;;;;;;17.67;13.77;;;;;;;0.85;100.00;97989.84;4823778;29;103217;-77
2021/01/03 06:27:50;;;;;;;16.67;13.67;;;;;;;0.79;100.00;97987.50;4823053;29;105284;-76
2021/01/03 06:30:22;;;;;;;15.87;12.43;;;;;;;0.84;100.00;97989.00;4820230;29;103739;-78
2021/01/03 06:33:37;;;;;;;16.40;12.57;;;;;;;0.79;100.00;97983.16;4809046;29;103523;-76
2021/01/03 06:36:11;;;;;;;19.67;14.27;;;;;;;0.87;100.00;97982.84;4804677;29;106326;-79
2021/01/03 06:39:01;;;;;;;18.13;13.80;;;;;;;0.91;100.00;97985.22;4814775;29;103979;-76
2021/01/03 06:41:47;;;;;;;13.83;10.23;;;;;;;0.95;100.00;97976.38;4819758;29;104581;-76
2021/01/03 06:44:47;;;;;;;17.20;14.03;;;;;;;0.95;100.00;97989.38;4814795;29;103107;-77
2021/01/03 06:48:04;;;;;;;13.63;10.97;;;;;;;1.00;100.00;97986.56;4809027;29;103739;-76
2021/01/03 06:52:53;;;;;;;13.63;10.57;;;;;;;0.81;100.00;97989.16;5109725;27;103340;-76
2021/01/03 06:55:48;;;;;;;17.87;14.13;;;;;;;0.85;100.00;97995.03;5075249;27;103710;-76
2021/01/03 06:58:43;;;;;;;16.83;12.43;;;;;;;0.82;100.00;98001.22;5105708;27;103954;-76
2021/01/03 07:01:19;;;;;;;15.60;12.77;;;;;;;0.82;100.00;97998.63;5096152;27;103931;-80
2021/01/03 07:03:50;;;;;;;15.03;12.33;;;;;;;0.83;100.00;97994.28;5108152;27;103104;-78
2021/01/03 07:06:18;;;;;;;17.23;14.57;;;;;;;0.75;100.00;97989.41;5078802;27;103422;-78
2021/01/03 07:08:50;;;;;;;17.00;14.37;;;;;;;0.76;100.00;97998.06;5025921;27;104454;-82
2021/01/03 07:11:38;;;;;;;14.93;11.43;;;;;;;0.74;100.00;97989.47;5045358;27;107379;-78
2021/01/03 07:14:06;;;;;;;16.23;13.53;;;;;;;0.63;100.00;97996.91;5056510;27;103142;-77
2021/01/03 07:16:50;;;;;;;13.27;10.87;;;;;;;0.72;100.00;97993.91;5055592;27;103109;-76
2021/01/03 07:19:32;;;;;;;17.30;12.77;;;;;;;0.81;100.00;98001.31;5050758;27;103859;-79
2021/01/03 07:22:04;;;;;;;12.70;9.83;;;;;;;0.90;100.00;97998.31;5052363;27;105202;-80
2021/01/03 07:24:36;;;;;;;13.87;11.10;;;;;;;0.94;100.00;97998.09;5044430;27;103311;-79
2021/01/03 07:27:24;;;;;;;16.83;13.07;;;;;;;0.91;99.92;98005.16;5033056;27;104678;-78
2021/01/03 07:30:19;;;;;;;15.33;12.87;;;;;;;0.93;100.00;98006.78;5051543;27;106360;-78
2021/01/03 07:32:54;;;;;;;16.07;13.03;;;;;;;0.90;99.84;98006.09;5040253;27;104419;-77
2021/01/03 07:35:36;;;;;;;16.63;13.17;;;;;;;1.02;100.00;98005.53;5041198;27;103133;-78
2021/01/03 07:38:31;;;;;;;17.83;14.53;;;;;;;0.99;99.55;98009.13;5044181;27;104569;-78
2021/01/03 07:41:06;;;;;;;18.00;14.73;;;;;;;1.01;100.00;98012.50;4986650;27;103925;-78
2021/01/03 07:43:56;;;;;;;18.03;14.20;;;;;;;0.88;99.60;98015.72;5033064;27;104247;-78
2021/01/03 07:46:50;;;;;;;16.50;13.87;;;;;;;0.80;99.83;98023.00;5047991;27;103459;-78
2021/01/03 07:49:47;;;;;;;14.17;11.50;;;;;;;0.93;100.00;98029.34;5024002;27;103361;-78
2021/01/03 07:52:41;;;;;;;15.03;11.63;;;;;;;0.99;99.60;98026.47;5048653;27;103981;-76
2021/01/03 07:55:32;;;;;;;14.10;11.63;;;;;;;0.99;99.67;98035.13;5037773;27;104519;-75
2021/01/03 07:58:03;;;;;;;10.57;8.57;;;;;;;1.04;99.56;98027.97;5029502;27;103398;-80
2021/01/03 08:00:33;;;;;;;16.37;13.37;;;;;;;1.00;99.41;98030.78;5051314;27;103346;-80
2021/01/03 08:03:03;;;;;;;15.23;12.27;;;;;;;1.08;99.95;98033.88;5020115;27;105928;-80
2021/01/03 08:05:31;;;;;;;12.00;9.40;;;;;;;1.21;99.66;98031.59;5046107;27;103519;-81
2021/01/03 08:08:06;;;;;;;15.60;12.43;;;;;;;1.24;99.13;98024.47;5043081;27;103181;-82
2021/01/03 08:10:34;;;;;;;12.23;9.97;;;;;;;1.32;99.20;98032.75;5018385;27;103511;-82
2021/01/03 08:13:09;;;;;;;10.93;9.23;;;;;;;1.37;98.71;98023.00;5044889;27;104187;-80
2021/01/03 08:15:37;;;;;;;15.40;12.33;;;;;;;1.29;98.47;98027.72;5002638;27;106217;-80
2021/01/03 08:18:11;;;;;;;14.57;11.90;;;;;;;1.39;99.13;98022.91;5025273;27;103416;-81
2021/01/03 08:20:38;;;;;;;14.63;12.60;;;;;;;1.35;98.36;98027.41;5046574;27;106426;-80
2021/01/03 08:23:23;;;;;;;10.70;9.27;;;;;;;1.39;98.39;98023.78;5053738;27;103207;-81
2021/01/03 08:26:04;;;;;;;14.70;11.63;;;;;;;1.45;98.98;98027.84;5037982;27;103763;-80
2021/01/03 08:28:36;;;;;;;14.87;10.03;;;;;;;1.41;98.62;98029.75;5053647;27;102661;-81
2021/01/03 08:31:05;;;;;;;11.23;9.30;;;;;;;1.41;99.20;98034.94;5038184;27;103303;-82
2021/01/03 08:33:35;;;;;;;13.03;10.37;;;;;;;1.41;98.36;98047.13;5025789;27;105197;-81
2021/01/03 08:36:15;;;;;;;15.67;12.87;;;;;;;1.40;98.58;98040.25;5029119;27;103776;-81
2021/01/03 08:38:42;;;;;;;18.83;14.50;;;;;;;1.35;97.71;98031.81;5038343;27;103139;-81
2021/01/03 08:41:16;;;;;;;15.97;13.77;;;;;;;1.39;98.59;98039.38;5038258;27;103384;-81
2021/01/03 08:43:44;;;;;;;13.43;10.73;;;;;;;1.54;98.60;98046.50;5040865;27;103472;-81
2021/01/03 08:46:17;;;;;;;16.90;12.80;;;;;;;1.43;97.77;98040.91;5037679;27;110815;-81
2021/01/03 08:48:57;;;;;;;13.13;11.00;;;;;;;1.56;97.78;98046.41;5021594;27;104142;-77
2021/01/03 08:51:24;;;;;;;12.90;10.03;;;;;;;1.61;97.82;98045.28;5040929;27;103063;-83
2021/01/03 08:56:46;;;;;;;11.40;8.90;;;;;;;1.65;98.49;98057.25;4935204;28;102993;-83
2021/01/03 08:59:16;;;;;;;11.50;9.60;;;;;;;1.61;97.96;98066.13;4945779;28;103349;-78
2021/01/03 09:01:44;;;;;;;13.40;10.80;;;;;;;1.63;97.72;98063.44;4921388;28;103546;-82
2021/01/03 09:04:15;;;;;;;11.63;10.10;;;;;;;1.66;97.41;98074.56;4913527;28;103978;-81
2021/01/03 09:06:44;;;;;;;14.20;11.97;;;;;;;1.56;96.29;98069.84;4934548;28;103337;-80
2021/01/03 09:09:15;;;;;;;14.80;12.20;;;;;;;1.53;97.14;98068.22;4931509;28;103746;-79
2021/01/03 09:11:50;;;;;;;13.80;12.27;;;;;;;1.49;98.25;98071.88;4921980;28;103018;-82
2021/01/03 09:14:26;;;;;;;14.60;12.20;;;;;;;1.69;98.20;98070.97;4926159;28;103820;-80
2021/01/03 09:16:56;;;;;;;12.67;11.03;;;;;;;1.77;97.13;98074.91;4916242;28;104221;-79
2021/01/03 09:19:28;;;;;;;9.80;8.80;;;;;;;1.81;96.35;98073.00;4920034;28;103364;-78
2021/01/03 09:21:58;;;;;;;11.80;10.30;;;;;;;1.79;96.37;98068.78;4903572;28;104563;-79
2021/01/03 09:24:29;;;;;;;11.97;10.47;;;;;;;1.87;95.81;98069.25;4918082;28;104363;-78
2021/01/03 09:26:58;;;;;;;11.00;8.83;;;;;;;1.90;96.42;98076.94;4913748;28;104453;-78
2021/01/03 09:29:29;;;;;;;10.43;8.70;;;;;;;1.92;95.77;98080.31;4915801;28;103727;-77
2021/01/03 09:32:01;;;;;;;12.47;11.17;;;;;;;1.94;95.39;98086.31;4901620;28;103649;-78
2021/01/03 09:34:47;;;;;;;10.83;9.20;;;;;;;1.92;95.39;98080.31;4913376;28;103978;-77
2021/01/03 09:37:24;;;;;;;10.20;8.77;;;;;;;2.02;95.69;98084.19;4911271;28;107412;-77
2021/01/03 09:40:21;;;;;;;10.87;9.53;;;;;;;1.98;94.82;98080.00;4920082;28;103264;-77
2021/01/03 09:43:15;;;;;;;11.93;10.17;;;;;;;1.94;95.74;98086.31;4905155;28;104976;-79
2021/01/03 09:46:00;;;;;;;13.60;11.37;;;;;;;1.95;94.80;98090.56;4902611;28;104009;-77
2021/01/03 09:48:31;;;;;;;13.13;11.70;;;;;;;1.91;95.21;98089.06;4924101;28;105522;-77
2021/01/03 09:51:10;;;;;;;13.77;12.37;;;;;;;1.91;94.70;98099.47;4916130;28;103432;-78
2021/01/03 09:53:42;;;;;;;13.67;11.47;;;;;;;1.97;94.22;98089.59;4914706;28;103669;-78
2021/01/03 09:56:17;;;;;;;10.93;9.83;;;;;;;1.99;94.75;98090.38;4921039;28;111384;-78
2021/01/03 09:58:50;;;;;;;14.03;12.53;;;;;;;1.98;94.12;98095.66;4921711;28;103792;-77
2021/01/03 10:01:28;;;;;;;13.00;11.57;;;;;;;2.11;94.75;98091.53;4929671;28;103943;-79
2021/01/03 10:03:55;;;;;;;13.87;12.20;;;;;;;2.16;94.32;98089.56;4920407;28;103082;-78
2021/01/03 10:06:29;;;;;;;13.47;11.67;;;;;;;2.15;93.70;98088.72;4920506;28;104465;-78
2021/01/03 10:09:09;;;;;;;13.40;10.30;;;;;;;2.15;93.28;98085.25;4919579;28;103993;-77
2021/01/03 10:11:37;;;;;;;13.47;12.07;;;;;;;2.11;93.07;98078.50;4914498;28;103057;-79
2021/01/03 10:14:07;;;;;;;15.10;12.77;;;;;;;2.22;92.97;98079.66;4930258;28;103260;-80
2021/01/03 10:16:38;;;;;;;13.97;11.60;;;;;;;2.25;92.85;98073.47;4924514;28;103459;-81
2021/01/03 10:19:18;;;;;;;11.03;9.43;;;;;;;2.40;93.93;98072.72;4927897;28;105141;-88
2021/01/03 10:21:46;;;;;;;12.37;10.53;;;;;;;2.48;92.92;98069.72;4942051;28;102509;-84
2021/01/03 10:24:17;;;;;;;14.93;11.70;;;;;;;2.40;91.83;98082.31;4927446;28;103219;-87
2021/01/03 10:26:46;;;;;;;12.93;10.63;;;;;;;2.64;92.45;98075.88;4934149;28;103233;-84
2021/01/03 10:29:14;;;;;;;16.03;13.37;;;;;;;2.60;91.42;98072.56;4929257;28;103065;-86
2021/01/03 10:31:45;;;;;;;14.80;12.63;;;;;;;2.65;91.77;98069.72;4935793;28;103082;-83
2021/01/03 10:34:17;;;;;;;13.03;11.33;;;;;;;2.38;92.02;98071.97;4916159;28;103110;-86
2021/01/03 10:36:45;;;;;;;14.47;12.03;;;;;;;2.34;91.96;98073.03;4889222;28;103677;-82
2021/01/03 10:39:14;;;;;;;11.77;10.10;;;;;;;2.43;92.26;98067.34;4879266;28;105084;-87
2021/01/03 10:41:48;;;;;;;12.23;10.67;;;;;;;2.57;91.79;98058.84;4898183;28;102646;-80
2021/01/03 10:44:16;;;;;;;13.27;11.57;;;;;;;2.40;91.97;98056.22;4887663;28;103507;-79
2021/01/03 10:46:47;;;;;;;15.10;12.53;;;;;;;2.30;92.51;98066.28;4914468;28;104824;-84
2021/01/03 10:49:25;;;;;;;11.97;10.53;;;;;;;2.32;92.39;98059.22;4928464;28;103238;-78
2021/01/03 10:51:52;;;;;;;15.27;12.30;;;;;;;2.40;92.69;98056.22;4919052;28;103454;-78
2021/01/03 10:54:22;;;;;;;15.50;12.93;;;;;;;2.19;93.62;98060.75;4921950;28;103347;-80
2021/01/03 10:57:04;;;;;;;16.97;13.53;;;;;;;2.06;93.22;98046.63;4918192;28;103454;-78
2021/01/03 10:59:31;;;;;;;14.60;11.97;;;;;;;2.22;93.24;98063.19;4920638;28;103823;-83
2021/01/03 11:01:59;;;;;;;15.33;13.00;;;;;;;2.38;93.48;98053.72;4914293;28;103541;-79
2021/01/03 11:04:26;;;;;;;15.17;13.53;;;;;;;2.26;92.04;98056.91;4931359;28;102948;-79
2021/01/03 11:06:55;;;;;;;15.00;11.97;;;;;;;2.28;93.09;98052.47;4918752;28;104663;-80
2021/01/03 11:09:25;;;;;;;14.83;13.20;;;;;;;2.17;92.62;98049.53;4932271;28;103743;-86
2021/01/03 11:11:59;;;;;;;13.67;12.20;;;;;;;2.14;92.24;98060.09;4938040;28;103033;-85
2021/01/03 11:14:26;;;;;;;14.77;12.97;;;;;;;2.14;92.73;98054.91;4901753;28;103375;-79
2021/01/03 11:16:54;;;;;;;16.30;13.83;;;;;;;2.24;92.04;98057.00;4918687;28;105291;-76
2021/01/03 11:19:22;;;;;;;13.63;11.63;;;;;;;2.00;94.30;98054.72;4917218;28;113791;-77
2021/01/03 11:21:54;;;;;;;17.10;13.97;;;;;;;2.07;94.63;98056.97;4920364;28;103112;-76
2021/01/03 11:24:21;;;;;;;19.00;15.70;;;;;;;1.97;93.91;98047.06;4919700;28;103345;-77
2021/01/03 11:26:48;;;;;;;18.43;14.87;;;;;;;1.88;94.91;98053.53;4918324;28;103468;-75
2021/01/03 11:29:19;;;;;;;26.20;20.87;;;;;;;1.86;96.17;98054.53;4920876;28;103793;-77
2021/01/03 11:31:51;;;;;;;22.60;17.47;;;;;;;1.40;96.06;98048.91;4914706;28;103682;-77
2021/01/03 11:34:21;;;;;;;19.20;16.27;;;;;;;1.45;97.69;98052.13;4914602;28;103633;-77
2021/01/03 11:36:51;;;;;;;21.73;17.57;;;;;;;1.39;98.48;98049.81;4919621;28;103386;-76
2021/01/03 11:39:18;;;;;;;20.40;18.00;;;;;;;1.24;97.32;98055.69;4918345;28;103327;-77
2021/01/03 11:41:47;;;;;;;17.93;15.50;;;;;;;1.20;98.59;98054.16;4920740;28;103735;-77
2021/01/03 11:44:14;;;;;;;21.70;16.77;;;;;;;1.18;98.36;98055.97;4920184;28;102912;-78
2021/01/03 11:46:42;;;;;;;18.53;16.43;;;;;;;1.28;97.98;98046.84;4917938;28;105046;-80
2021/01/03 11:49:09;;;;;;;19.57;15.97;;;;;;;1.37;97.94;98042.97;4918392;28;103165;-78